Time;durP1;ratioP1;P1;durP2;ratioP2;P2;SDS_P1;SDS_P2;PMS_P1;PMS_P2;Temp;Humidity;BMP_temperature;BMP_pressure;BME280_temperature;BME280_humidity;BME280_pressure;Samples;Min_cycle;Max_cycle;Signal;HPM_P1;HPM_P2
2022/04/24 00:00:16;;;;;;;3.77;2.40;;;;;;;;;;5015516;28;20224;-82
2022/04/24 00:02:42;;;;;;;3.00;2.53;;;;;;;;;;5013559;28;20319;-80
2022/04/24 00:05:08;;;;;;;3.37;2.57;;;;;;;;;;5034891;28;20243;-79
2022/04/24 00:07:34;;;;;;;4.90;2.90;;;;;;;;;;5039909;28;20220;-79
2022/04/24 00:09:59;;;;;;;3.10;2.50;;;;;;;;;;5012995;28;20236;-79
2022/04/24 00:12:27;;;;;;;2.60;2.40;;;;;;;;;;5025576;28;20223;-79
2022/04/24 00:14:55;;;;;;;3.77;2.53;;;;;;;;;;5018948;28;20239;-80
2022/04/24 00:17:21;;;;;;;2.90;2.60;;;;;;;;;;5003528;28;20221;-80
2022/04/24 00:19:48;;;;;;;2.93;2.40;;;;;;;;;;5032631;28;20243;-80
2022/04/24 00:22:14;;;;;;;3.37;2.43;;;;;;;;;;5047017;28;20219;-81
2022/04/24 00:24:39;;;;;;;3.00;2.60;;;;;;;;;;5025926;28;20232;-81
2022/04/24 00:27:07;;;;;;;2.50;2.30;;;;;;;;;;5026042;28;20224;-81
2022/04/24 00:29:33;;;;;;;4.23;2.60;;;;;;;;;;5022270;28;20238;-81
2022/04/24 00:32:03;;;;;;;3.23;2.80;;;;;;;;;;5036904;28;20215;-80
2022/04/24 00:34:29;;;;;;;2.97;2.50;;;;;;;;;;5007810;28;20377;-81
2022/04/24 00:36:54;;;;;;;4.73;2.60;;;;;;;;;;5025980;28;20758;-79
2022/04/24 00:39:19;;;;;;;4.77;2.97;;;;;;;;;;5018519;28;20247;-80
2022/04/24 00:41:49;;;;;;;3.17;2.80;;;;;;;;;;5013484;28;20240;-81
2022/04/24 00:44:17;;;;;;;2.93;2.50;;;;;;;;;;5007211;28;20292;-80
2022/04/24 00:47:11;;;;;;;4.67;2.80;;;;;;;;;;5027154;23;20438;-81
2022/04/24 00:49:36;;;;;;;3.60;2.90;;;;;;;;;;5019496;28;20235;-78
2022/04/24 00:52:04;;;;;;;3.43;2.93;;;;;;;;;;5023955;28;20405;-76
2022/04/24 00:54:29;;;;;;;2.80;2.60;;;;;;;;;;5022866;28;20220;-78
2022/04/24 00:57:00;;;;;;;2.80;2.60;;;;;;;;;;5039103;28;20259;-78
2022/04/24 00:59:25;;;;;;;3.43;2.93;;;;;;;;;;5021156;28;20925;-78
2022/04/24 01:01:51;;;;;;;2.97;2.60;;;;;;;;;;5022493;28;20281;-78
2022/04/24 01:04:16;;;;;;;2.87;2.57;;;;;;;;;;5006359;28;20256;-78
2022/04/24 01:06:44;;;;;;;4.33;3.00;;;;;;;;;;5038425;28;20543;-78
2022/04/24 01:09:17;;;;;;;3.43;3.00;;;;;;;;;;5039872;28;20215;-79
2022/04/24 01:11:44;;;;;;;3.67;3.00;;;;;;;;;;5015346;28;20231;-78
2022/04/24 01:14:09;;;;;;;2.80;2.60;;;;;;;;;;5008536;28;20278;-77
2022/04/24 01:16:35;;;;;;;3.13;2.80;;;;;;;;;;5022078;28;20216;-78
2022/04/24 01:19:00;;;;;;;2.97;2.67;;;;;;;;;;5004911;28;20236;-77
2022/04/24 01:21:28;;;;;;;4.00;2.80;;;;;;;;;;5019148;28;20228;-78
2022/04/24 01:23:54;;;;;;;3.13;2.83;;;;;;;;;;4995791;28;20255;-77
2022/04/24 01:26:19;;;;;;;3.07;2.83;;;;;;;;;;5019066;28;20314;-78
2022/04/24 01:28:44;;;;;;;3.10;2.73;;;;;;;;;;4987966;28;20256;-78
2022/04/24 01:31:15;;;;;;;3.80;2.70;;;;;;;;;;5002836;28;20228;-77
2022/04/24 01:33:40;;;;;;;3.20;2.90;;;;;;;;;;5011480;28;20236;-77
2022/04/24 01:36:05;;;;;;;2.97;2.63;;;;;;;;;;5019065;28;20259;-78
2022/04/24 01:38:33;;;;;;;3.37;2.70;;;;;;;;;;4996789;28;20241;-78
2022/04/24 01:41:03;;;;;;;5.00;2.97;;;;;;;;;;5002018;28;20697;-79
2022/04/24 01:43:29;;;;;;;3.03;2.70;;;;;;;;;;4994542;28;20223;-79
2022/04/24 01:45:55;;;;;;;3.40;2.80;;;;;;;;;;5027279;28;20216;-79
2022/04/24 01:48:20;;;;;;;5.23;2.97;;;;;;;;;;5034718;28;20220;-79
2022/04/24 01:50:46;;;;;;;3.30;3.00;;;;;;;;;;5045237;28;20302;-78
2022/04/24 01:53:13;;;;;;;3.43;2.97;;;;;;;;;;5017782;28;20227;-79
2022/04/24 01:55:39;;;;;;;3.57;3.13;;;;;;;;;;5026841;28;20235;-79
2022/04/24 01:58:04;;;;;;;4.23;3.20;;;;;;;;;;4996960;28;20339;-77
2022/04/24 02:00:33;;;;;;;3.30;3.00;;;;;;;;;;5037581;28;20224;-77
2022/04/24 02:03:00;;;;;;;3.43;3.13;;;;;;;;;;5022797;28;20219;-78
2022/04/24 02:05:29;;;;;;;3.53;3.20;;;;;;;;;;5003293;28;20649;-77
2022/04/24 02:07:57;;;;;;;3.80;3.03;;;;;;;;;;5001862;28;20259;-77
2022/04/24 02:10:24;;;;;;;5.50;3.30;;;;;;;;;;5017616;28;20224;-78
2022/04/24 02:12:50;;;;;;;3.80;3.17;;;;;;;;;;5002549;28;20291;-77
2022/04/24 02:15:17;;;;;;;4.93;3.30;;;;;;;;;;5040143;28;20255;-78
2022/04/24 02:17:43;;;;;;;3.70;3.10;;;;;;;;;;5017123;28;20231;-78
2022/04/24 02:20:09;;;;;;;3.50;3.20;;;;;;;;;;5041489;28;20677;-79
2022/04/24 02:22:35;;;;;;;3.80;3.20;;;;;;;;;;5022839;28;20231;-78
2022/04/24 02:25:08;;;;;;;3.20;2.90;;;;;;;;;;5035978;28;20613;-77
2022/04/24 02:27:34;;;;;;;4.10;3.30;;;;;;;;;;5015655;28;20226;-77
2022/04/24 02:30:01;;;;;;;5.30;3.17;;;;;;;;;;5036420;28;20247;-77
2022/04/24 02:32:29;;;;;;;7.33;3.10;;;;;;;;;;5034534;28;20466;-78
2022/04/24 02:34:55;;;;;;;3.43;3.00;;;;;;;;;;4987863;28;20228;-78
2022/04/24 02:37:22;;;;;;;3.40;3.10;;;;;;;;;;5002107;28;20230;-78
2022/04/24 02:39:48;;;;;;;4.70;2.87;;;;;;;;;;5017186;28;20699;-78
2022/04/24 02:42:13;;;;;;;3.37;2.80;;;;;;;;;;5001782;28;20224;-78
2022/04/24 02:44:39;;;;;;;3.57;2.70;;;;;;;;;;5012139;28;20585;-78
2022/04/24 02:47:06;;;;;;;4.33;3.20;;;;;;;;;;4992706;28;20691;-78
2022/04/24 02:49:34;;;;;;;4.60;2.80;;;;;;;;;;5026964;28;20247;-78
2022/04/24 02:52:04;;;;;;;3.13;2.80;;;;;;;;;;5043446;28;20721;-78
2022/04/24 02:54:29;;;;;;;4.93;3.10;;;;;;;;;;5003162;28;20246;-78
2022/04/24 02:56:55;;;;;;;2.97;2.67;;;;;;;;;;5026184;28;20295;-79
2022/04/24 02:59:20;;;;;;;3.53;2.60;;;;;;;;;;5008202;28;20256;-78
2022/04/24 03:01:49;;;;;;;3.47;2.60;;;;;;;;;;4991565;28;20267;-78
2022/04/24 03:04:15;;;;;;;3.87;2.80;;;;;;;;;;5026058;28;20224;-79
2022/04/24 03:06:40;;;;;;;5.03;3.00;;;;;;;;;;5043799;28;20258;-78
2022/04/24 03:09:06;;;;;;;4.10;2.70;;;;;;;;;;5023132;28;20244;-78
2022/04/24 03:11:31;;;;;;;4.17;2.77;;;;;;;;;;5042318;28;20267;-79
2022/04/24 03:13:57;;;;;;;4.57;2.60;;;;;;;;;;5043330;28;20224;-78
2022/04/24 03:16:22;;;;;;;3.67;2.87;;;;;;;;;;5024139;28;20305;-78
2022/04/24 03:18:50;;;;;;;3.63;2.53;;;;;;;;;;5025520;28;20242;-77
2022/04/24 03:21:20;;;;;;;3.67;2.50;;;;;;;;;;5007292;28;20737;-79
2022/04/24 03:23:50;;;;;;;3.43;2.67;;;;;;;;;;5025945;28;20216;-79
2022/04/24 03:26:16;;;;;;;6.77;3.13;;;;;;;;;;4993251;28;20226;-79
2022/04/24 03:28:44;;;;;;;4.63;2.80;;;;;;;;;;5043668;28;20654;-77
2022/04/24 03:31:12;;;;;;;3.00;2.70;;;;;;;;;;5008465;28;20231;-78
2022/04/24 03:33:37;;;;;;;3.90;2.50;;;;;;;;;;5009092;28;20303;-77
2022/04/24 03:36:03;;;;;;;3.23;2.90;;;;;;;;;;4999894;28;20296;-78
2022/04/24 03:38:28;;;;;;;2.80;2.57;;;;;;;;;;5017097;28;20239;-79
2022/04/24 03:40:54;;;;;;;3.20;2.60;;;;;;;;;;5021029;28;20260;-77
2022/04/24 03:43:19;;;;;;;3.50;2.63;;;;;;;;;;5022810;28;20328;-79
2022/04/24 03:45:47;;;;;;;4.10;2.40;;;;;;;;;;5010136;28;20208;-76
2022/04/24 03:48:12;;;;;;;3.57;2.50;;;;;;;;;;5022632;28;20311;-78
2022/04/24 03:50:38;;;;;;;3.17;2.43;;;;;;;;;;5007901;28;20323;-78
2022/04/24 03:53:06;;;;;;;2.63;2.33;;;;;;;;;;5002676;28;20266;-77
2022/04/24 03:55:33;;;;;;;4.67;2.40;;;;;;;;;;5025460;28;20287;-77
2022/04/24 03:57:59;;;;;;;3.70;2.40;;;;;;;;;;5030156;28;20234;-78
2022/04/24 04:00:26;;;;;;;4.43;2.50;;;;;;;;;;5036547;28;20220;-77
2022/04/24 04:02:53;;;;;;;3.07;2.30;;;;;;;;;;5035201;28;20268;-78
2022/04/24 04:05:22;;;;;;;4.00;2.50;;;;;;;;;;5012229;28;20619;-78
2022/04/24 04:07:47;;;;;;;5.60;3.00;;;;;;;;;;5043189;28;20224;-79
2022/04/24 04:10:13;;;;;;;4.60;2.63;;;;;;;;;;5008034;28;20291;-79
2022/04/24 04:12:38;;;;;;;3.90;2.77;;;;;;;;;;5024516;28;20231;-79
2022/04/24 04:15:04;;;;;;;3.33;2.47;;;;;;;;;;5024900;28;20272;-78
2022/04/24 04:17:32;;;;;;;4.20;2.50;;;;;;;;;;5016434;28;20242;-77
2022/04/24 04:20:00;;;;;;;4.00;2.37;;;;;;;;;;5053109;28;20243;-77
2022/04/24 04:22:26;;;;;;;3.77;2.47;;;;;;;;;;5009188;28;20287;-78
2022/04/24 04:24:52;;;;;;;4.67;2.37;;;;;;;;;;5018102;28;20220;-77
2022/04/24 04:27:18;;;;;;;3.37;2.47;;;;;;;;;;5031641;28;20275;-76
2022/04/24 04:29:46;;;;;;;4.37;2.60;;;;;;;;;;5021267;28;20208;-76
2022/04/24 04:32:11;;;;;;;4.57;2.23;;;;;;;;;;5004447;28;20216;-76
2022/04/24 04:34:37;;;;;;;4.13;2.70;;;;;;;;;;5028216;28;20222;-77
2022/04/24 04:37:05;;;;;;;4.63;2.40;;;;;;;;;;5035891;28;20232;-77
2022/04/24 04:39:30;;;;;;;3.00;2.43;;;;;;;;;;5036520;28;20224;-77
2022/04/24 04:41:58;;;;;;;4.33;2.77;;;;;;;;;;5018415;28;20243;-78
2022/04/24 04:44:23;;;;;;;4.10;2.50;;;;;;;;;;5027140;28;20228;-77
2022/04/24 04:46:49;;;;;;;3.00;2.40;;;;;;;;;;5012257;28;20227;-78
2022/04/24 04:49:14;;;;;;;3.77;2.57;;;;;;;;;;5025951;28;20244;-78
2022/04/24 04:51:40;;;;;;;5.10;2.60;;;;;;;;;;5030010;28;20677;-78
2022/04/24 04:54:10;;;;;;;2.67;2.47;;;;;;;;;;5024064;28;20250;-79
2022/04/24 04:56:37;;;;;;;2.83;2.50;;;;;;;;;;5037479;28;20230;-78
2022/04/24 04:59:03;;;;;;;3.97;2.40;;;;;;;;;;5038924;28;20231;-78
2022/04/24 05:01:30;;;;;;;5.10;2.47;;;;;;;;;;5038183;28;20621;-77
2022/04/24 05:03:58;;;;;;;2.87;2.40;;;;;;;;;;5037962;28;20216;-77
2022/04/24 05:06:24;;;;;;;4.07;2.30;;;;;;;;;;5038282;28;20238;-78
2022/04/24 05:08:49;;;;;;;4.97;2.60;;;;;;;;;;5023614;28;20236;-78
2022/04/24 05:11:15;;;;;;;2.80;2.17;;;;;;;;;;5055311;28;20297;-78
2022/04/24 05:13:40;;;;;;;5.17;2.60;;;;;;;;;;5014842;28;20235;-77
2022/04/24 05:16:06;;;;;;;3.97;2.27;;;;;;;;;;5054373;28;20240;-77
2022/04/24 05:18:33;;;;;;;4.77;2.60;;;;;;;;;;5020838;28;20233;-78
2022/04/24 05:21:02;;;;;;;4.27;2.73;;;;;;;;;;5038429;28;20232;-77
2022/04/24 05:23:30;;;;;;;3.70;2.40;;;;;;;;;;5037740;28;20222;-77
2022/04/24 05:25:55;;;;;;;4.53;2.50;;;;;;;;;;5021844;28;20311;-77
2022/04/24 05:28:20;;;;;;;4.10;2.60;;;;;;;;;;5054990;28;20224;-77
2022/04/24 05:30:46;;;;;;;3.60;2.70;;;;;;;;;;5038000;28;20246;-77
2022/04/24 05:33:18;;;;;;;4.17;2.47;;;;;;;;;;5036902;28;20235;-78
2022/04/24 05:35:45;;;;;;;4.60;2.67;;;;;;;;;;5022752;28;20219;-78
2022/04/24 05:38:13;;;;;;;3.53;2.63;;;;;;;;;;5046419;28;20224;-78
2022/04/24 05:40:41;;;;;;;4.50;2.80;;;;;;;;;;5038761;28;20240;-77
2022/04/24 05:43:07;;;;;;;3.87;2.53;;;;;;;;;;5052279;28;20223;-78
2022/04/24 05:45:34;;;;;;;3.00;2.40;;;;;;;;;;5054814;28;20223;-77
2022/04/24 05:48:00;;;;;;;3.70;2.70;;;;;;;;;;5018454;28;20291;-78
2022/04/24 05:50:26;;;;;;;4.73;2.67;;;;;;;;;;5012319;28;20311;-77
2022/04/24 05:52:55;;;;;;;3.80;2.70;;;;;;;;;;5037080;28;20216;-78
2022/04/24 05:55:20;;;;;;;4.70;2.67;;;;;;;;;;5003070;28;20236;-77
2022/04/24 05:57:49;;;;;;;4.57;2.73;;;;;;;;;;5028930;28;20275;-77
2022/04/24 06:00:17;;;;;;;3.70;2.70;;;;;;;;;;5025458;28;20710;-77
2022/04/24 06:02:43;;;;;;;3.47;2.80;;;;;;;;;;5028062;28;20238;-76
2022/04/24 06:05:08;;;;;;;5.07;2.80;;;;;;;;;;5042777;28;20244;-77
2022/04/24 06:07:36;;;;;;;5.23;3.00;;;;;;;;;;5043276;28;20224;-77
2022/04/24 06:10:05;;;;;;;4.33;3.20;;;;;;;;;;5011316;28;20250;-77
2022/04/24 06:12:30;;;;;;;7.00;3.10;;;;;;;;;;5009889;28;20224;-77
2022/04/24 06:15:05;;;;;;;3.53;2.90;;;;;;;;;;5011256;28;20664;-77
2022/04/24 06:17:33;;;;;;;4.50;3.00;;;;;;;;;;5017504;23;20217;-81
2022/04/24 06:19:58;;;;;;;5.27;3.00;;;;;;;;;;4966436;28;20340;-81
2022/04/24 06:22:24;;;;;;;5.20;3.00;;;;;;;;;;4968289;28;20241;-81
2022/04/24 06:24:52;;;;;;;4.80;3.07;;;;;;;;;;4951419;28;20248;-80
2022/04/24 06:27:20;;;;;;;5.53;2.90;;;;;;;;;;4982593;28;20316;-82
2022/04/24 06:29:45;;;;;;;3.83;2.70;;;;;;;;;;4969840;28;20312;-81
2022/04/24 06:32:11;;;;;;;4.60;2.90;;;;;;;;;;5000722;28;20300;-81
2022/04/24 06:34:36;;;;;;;6.07;3.10;;;;;;;;;;4994809;28;20316;-80
2022/04/24 06:37:02;;;;;;;5.43;2.83;;;;;;;;;;4977048;28;20300;-82
2022/04/24 06:39:30;;;;;;;4.23;2.77;;;;;;;;;;5001616;28;20237;-82
2022/04/24 06:41:57;;;;;;;4.63;2.80;;;;;;;;;;4967819;28;20594;-80
2022/04/24 06:44:24;;;;;;;4.53;2.90;;;;;;;;;;4993198;28;20240;-78
2022/04/24 06:46:50;;;;;;;4.27;2.80;;;;;;;;;;4994468;28;20256;-79
2022/04/24 06:49:15;;;;;;;5.73;2.90;;;;;;;;;;4976045;28;20221;-79
2022/04/24 06:51:41;;;;;;;4.60;2.70;;;;;;;;;;5002280;28;20224;-78
2022/04/24 06:54:06;;;;;;;4.57;2.90;;;;;;;;;;4993446;28;20232;-82
2022/04/24 06:56:34;;;;;;;5.40;3.20;;;;;;;;;;4993407;28;20229;-81
2022/04/24 06:58:59;;;;;;;4.23;2.97;;;;;;;;;;5012784;28;20228;-81
2022/04/24 07:01:26;;;;;;;4.00;2.70;;;;;;;;;;4977642;28;20603;-83
2022/04/24 07:03:52;;;;;;;4.33;2.80;;;;;;;;;;5003789;28;20248;-80
2022/04/24 07:06:17;;;;;;;6.40;2.80;;;;;;;;;;4970641;28;20741;-81
2022/04/24 07:08:42;;;;;;;3.63;2.50;;;;;;;;;;4984229;28;20308;-82
2022/04/24 07:11:08;;;;;;;2.47;2.27;;;;;;;;;;5000253;28;20637;-81
2022/04/24 07:13:33;;;;;;;3.93;2.73;;;;;;;;;;4983472;28;20228;-82
2022/04/24 07:15:59;;;;;;;3.23;2.63;;;;;;;;;;4982883;28;20220;-82
2022/04/24 07:19:21;;;;;;;3.10;2.50;;;;;;;;;;4983807;28;20288;-81
2022/04/24 07:21:51;;;;;;;3.57;2.70;;;;;;;;;;5005065;28;20305;-81
2022/04/24 07:24:19;;;;;;;3.23;2.40;;;;;;;;;;4977287;28;20232;-81
2022/04/24 07:26:47;;;;;;;3.27;2.57;;;;;;;;;;4998492;28;20233;-84
2022/04/24 07:29:13;;;;;;;3.73;2.67;;;;;;;;;;4968229;28;20233;-83
2022/04/24 07:31:38;;;;;;;3.70;2.20;;;;;;;;;;4968709;28;20232;-83
2022/04/24 07:34:04;;;;;;;5.70;2.70;;;;;;;;;;4974844;28;20256;-80
2022/04/24 07:36:29;;;;;;;2.67;2.40;;;;;;;;;;4999368;28;20287;-82
2022/04/24 07:38:55;;;;;;;4.23;2.40;;;;;;;;;;5017519;28;20236;-84
2022/04/24 07:41:21;;;;;;;2.73;2.20;;;;;;;;;;4967727;28;20319;-82
2022/04/24 07:43:48;;;;;;;4.00;2.63;;;;;;;;;;4985769;28;20239;-82
2022/04/24 07:46:15;;;;;;;4.47;2.30;;;;;;;;;;5018119;28;20231;-81
2022/04/24 07:48:40;;;;;;;2.47;2.17;;;;;;;;;;4985126;28;20221;-82
2022/04/24 07:51:06;;;;;;;2.70;2.20;;;;;;;;;;4974235;28;20324;-82
2022/04/24 07:53:31;;;;;;;3.53;2.53;;;;;;;;;;4968278;28;20781;-81
2022/04/24 07:55:56;;;;;;;3.53;2.40;;;;;;;;;;4989305;28;20255;-84
2022/04/24 07:58:24;;;;;;;4.43;2.30;;;;;;;;;;4995525;28;20239;-80
2022/04/24 08:00:50;;;;;;;3.27;2.50;;;;;;;;;;4997112;28;20300;-81
2022/04/24 08:03:15;;;;;;;3.67;2.23;;;;;;;;;;5000094;28;20221;-78
2022/04/24 08:05:45;;;;;;;3.27;2.70;;;;;;;;;;4985848;28;20244;-79
2022/04/24 08:08:22;;;;;;;2.63;2.30;;;;;;;;;;5001900;28;20224;-79
2022/04/24 08:10:53;;;;;;;3.00;2.13;;;;;;;;;;4985982;28;20232;-78
2022/04/24 08:13:18;;;;;;;3.43;2.33;;;;;;;;;;5013401;28;20285;-78
2022/04/24 08:15:44;;;;;;;2.77;2.40;;;;;;;;;;5012990;28;20255;-80
2022/04/24 08:18:10;;;;;;;3.10;2.30;;;;;;;;;;4993450;28;20243;-80
2022/04/24 08:20:36;;;;;;;4.60;2.37;;;;;;;;;;5009838;28;20236;-78
2022/04/24 08:23:02;;;;;;;3.37;2.30;;;;;;;;;;4994523;28;20232;-78
2022/04/24 08:25:28;;;;;;;3.80;2.43;;;;;;;;;;4992739;28;20240;-80
2022/04/24 08:27:54;;;;;;;3.13;2.40;;;;;;;;;;4993900;28;20228;-79
2022/04/24 08:30:20;;;;;;;3.10;2.10;;;;;;;;;;4983872;28;20294;-78
2022/04/24 08:32:46;;;;;;;2.83;2.30;;;;;;;;;;5011571;28;20289;-80
2022/04/24 08:35:13;;;;;;;3.50;2.30;;;;;;;;;;4996152;28;20282;-80
2022/04/24 08:37:44;;;;;;;3.87;2.37;;;;;;;;;;4994863;28;20239;-78
2022/04/24 08:40:11;;;;;;;4.33;2.23;;;;;;;;;;4976575;28;20310;-79
2022/04/24 08:42:37;;;;;;;4.90;2.30;;;;;;;;;;4980669;28;20228;-80
2022/04/24 08:45:11;;;;;;;2.63;2.23;;;;;;;;;;4995146;28;20232;-77
2022/04/24 08:47:36;;;;;;;2.70;2.27;;;;;;;;;;5010720;28;20264;-80
2022/04/24 08:50:02;;;;;;;3.80;2.30;;;;;;;;;;4981301;28;20220;-78
2022/04/24 08:52:28;;;;;;;2.13;1.90;;;;;;;;;;5008387;28;20956;-78
2022/04/24 08:54:54;;;;;;;2.73;2.10;;;;;;;;;;4999170;28;20835;-80
2022/04/24 08:57:20;;;;;;;2.53;2.00;;;;;;;;;;4985444;28;20259;-79
2022/04/24 08:59:48;;;;;;;2.60;2.00;;;;;;;;;;5012897;28;20229;-80
2022/04/24 09:02:16;;;;;;;3.13;2.30;;;;;;;;;;4998398;28;20292;-78
2022/04/24 09:04:41;;;;;;;2.47;2.20;;;;;;;;;;5031638;28;20235;-78
2022/04/24 09:07:08;;;;;;;3.77;2.00;;;;;;;;;;4998185;28;20703;-80
2022/04/24 09:09:45;;;;;;;3.10;2.23;;;;;;;;;;4985356;28;20220;-78
2022/04/24 09:12:18;;;;;;;3.53;2.53;;;;;;;;;;4980616;28;20232;-79
2022/04/24 09:14:48;;;;;;;2.90;2.30;;;;;;;;;;4996589;28;20304;-82
2022/04/24 09:17:20;;;;;;;2.77;2.40;;;;;;;;;;4990663;28;20232;-84
2022/04/24 09:19:46;;;;;;;3.07;2.50;;;;;;;;;;4986714;28;20705;-83
2022/04/24 09:22:12;;;;;;;2.63;2.40;;;;;;;;;;4981372;28;20236;-82
2022/04/24 09:24:41;;;;;;;4.77;2.63;;;;;;;;;;5000134;28;20239;-83
2022/04/24 09:27:07;;;;;;;3.77;2.23;;;;;;;;;;4966834;28;20228;-82
2022/04/24 09:29:33;;;;;;;5.20;2.50;;;;;;;;;;4984064;28;20577;-81
2022/04/24 09:31:58;;;;;;;2.50;2.30;;;;;;;;;;4967150;28;20229;-82
2022/04/24 09:34:33;;;;;;;3.80;2.63;;;;;;;;;;5017450;28;20285;-83
2022/04/24 09:37:03;;;;;;;3.50;2.30;;;;;;;;;;4985351;28;20259;-81
2022/04/24 09:39:29;;;;;;;4.20;2.50;;;;;;;;;;4965943;28;20232;-80
2022/04/24 09:42:04;;;;;;;3.40;2.40;;;;;;;;;;4983492;28;20231;-81
2022/04/24 09:44:41;;;;;;;2.57;2.37;;;;;;;;;;4986174;28;20233;-82
2022/04/24 09:47:08;;;;;;;3.07;2.50;;;;;;;;;;4983664;28;20283;-80
2022/04/24 09:49:39;;;;;;;4.37;2.70;;;;;;;;;;4971201;28;20228;-80
2022/04/24 09:52:11;;;;;;;2.93;2.43;;;;;;;;;;4981790;28;20228;-79
2022/04/24 09:54:49;;;;;;;3.10;2.77;;;;;;;;;;4971714;28;20229;-80
2022/04/24 09:57:15;;;;;;;2.80;2.30;;;;;;;;;;4969122;28;20236;-81
2022/04/24 09:59:41;;;;;;;3.73;2.20;;;;;;;;;;4984079;28;20383;-81
2022/04/24 10:02:08;;;;;;;2.70;2.50;;;;;;;;;;4982289;28;20575;-81
2022/04/24 10:04:35;;;;;;;3.30;2.50;;;;;;;;;;5000827;28;20398;-80
2022/04/24 10:07:04;;;;;;;2.77;2.20;;;;;;;;;;4984325;28;20247;-80
2022/04/24 10:09:30;;;;;;;5.67;3.80;;;;;;;;;;4979120;28;20233;-80
2022/04/24 10:11:55;;;;;;;5.30;3.20;;;;;;;;;;4997948;28;20236;-79
2022/04/24 10:14:21;;;;;;;3.10;2.77;;;;;;;;;;4987774;28;20292;-80
2022/04/24 10:17:19;;;;;;;3.63;2.70;;;;;;;;;;4985501;28;20235;-80
2022/04/24 10:20:02;;;;;;;3.50;2.80;;;;;;;;;;4984494;28;20244;-80
2022/04/24 10:22:37;;;;;;;2.57;2.37;;;;;;;;;;5004257;28;20229;-79
2022/04/24 10:25:04;;;;;;;3.30;2.60;;;;;;;;;;4995364;28;20236;-80
2022/04/24 10:27:42;;;;;;;4.90;2.50;;;;;;;;;;4984853;28;20229;-81
2022/04/24 10:30:22;;;;;;;3.60;2.70;;;;;;;;;;4998902;28;20237;-82
2022/04/24 10:32:50;;;;;;;2.70;2.47;;;;;;;;;;5000358;28;20701;-81
2022/04/24 10:35:19;;;;;;;2.67;2.43;;;;;;;;;;4985084;28;20224;-82
2022/04/24 10:38:09;;;;;;;3.10;2.80;;;;;;;;;;4987551;28;20233;-78
2022/04/24 10:40:34;;;;;;;4.57;2.70;;;;;;;;;;4990976;28;20237;-79
2022/04/24 10:43:04;;;;;;;3.67;2.85;;;;;;;;;;4987708;28;20271;-79
2022/04/24 10:45:30;;;;;;;2.83;2.53;;;;;;;;;;4999896;28;20263;-82
2022/04/24 10:47:56;;;;;;;3.15;2.63;;;;;;;;;;4969716;28;20225;-80
2022/04/24 10:50:22;;;;;;;3.08;2.45;;;;;;;;;;4987210;28;20304;-81
2022/04/24 10:52:53;;;;;;;3.92;2.45;;;;;;;;;;4965660;28;20256;-79
2022/04/24 10:55:22;;;;;;;4.38;2.72;;;;;;;;;;4988123;28;20235;-79
2022/04/24 10:57:57;;;;;;;5.22;2.60;;;;;;;;;;4970439;28;20244;-79
2022/04/24 11:00:27;;;;;;;3.07;2.53;;;;;;;;;;4953061;28;20232;-80
2022/04/24 11:03:04;;;;;;;4.17;2.87;;;;;;;;;;4999465;28;20233;-80
2022/04/24 11:05:35;;;;;;;3.40;2.63;;;;;;;;;;4985128;28;20224;-80
2022/04/24 11:08:02;;;;;;;3.20;2.60;;;;;;;;;;4964047;28;20225;-81
2022/04/24 11:10:28;;;;;;;3.70;2.70;;;;;;;;;;4965991;28;20225;-80
2022/04/24 11:12:54;;;;;;;3.37;2.63;;;;;;;;;;4970080;28;20239;-80
2022/04/24 11:15:20;;;;;;;3.90;2.70;;;;;;;;;;5001349;28;20243;-81
2022/04/24 11:17:48;;;;;;;4.15;2.63;;;;;;;;;;4987396;28;20714;-78
2022/04/24 11:20:16;;;;;;;3.00;2.70;;;;;;;;;;5016330;28;20701;-80
2022/04/24 11:22:46;;;;;;;3.70;2.50;;;;;;;;;;4966367;28;20232;-77
2022/04/24 11:25:17;;;;;;;4.70;3.00;;;;;;;;;;4984336;28;20221;-80
2022/04/24 11:27:44;;;;;;;3.93;2.90;;;;;;;;;;5002150;28;20328;-82
2022/04/24 11:30:17;;;;;;;4.30;3.00;;;;;;;;;;4956453;28;20220;-82
2022/04/24 11:32:53;;;;;;;4.07;3.00;;;;;;;;;;4983664;28;20229;-80
2022/04/24 11:35:19;;;;;;;3.10;2.80;;;;;;;;;;4969818;28;20291;-79
2022/04/24 11:37:44;;;;;;;3.77;2.60;;;;;;;;;;4972510;28;20244;-80
2022/04/24 11:40:12;;;;;;;4.07;2.80;;;;;;;;;;5006849;28;20237;-81
2022/04/24 11:42:38;;;;;;;4.27;3.17;;;;;;;;;;4994628;28;20236;-81
2022/04/24 11:50:51;;;;;;;4.13;2.87;;;;;;;;;;5002500;28;20244;-80
2022/04/24 11:53:19;;;;;;;3.73;3.10;;;;;;;;;;4969043;28;20697;-80
2022/04/24 11:56:02;;;;;;;4.07;3.00;;;;;;;;;;4988152;28;20224;-79
2022/04/24 11:58:38;;;;;;;3.50;3.20;;;;;;;;;;4985671;28;20228;-80
2022/04/24 12:01:06;;;;;;;4.87;3.00;;;;;;;;;;4985905;28;20323;-81
2022/04/24 12:03:33;;;;;;;4.57;2.80;;;;;;;;;;4982061;28;20661;-81
2022/04/24 12:06:03;;;;;;;3.57;2.60;;;;;;;;;;4966386;28;20229;-80
2022/04/24 12:08:47;;;;;;;5.07;3.10;;;;;;;;;;4987385;28;20221;-80
2022/04/24 12:11:26;;;;;;;3.90;2.97;;;;;;;;;;4999894;28;20619;-82
2022/04/24 12:14:26;;;;;;;5.10;3.38;;;;;;;;;;4977105;28;20316;-82
2022/04/24 12:16:55;;;;;;;3.53;3.23;;;;;;;;;;5001082;28;20260;-80
2022/04/24 12:19:24;;;;;;;5.53;3.33;;;;;;;;;;5002222;28;20237;-80
2022/04/24 12:21:50;;;;;;;4.38;3.50;;;;;;;;;;4956332;28;20720;-81
2022/04/24 12:24:16;;;;;;;4.27;3.20;;;;;;;;;;4960386;28;20232;-79
2022/04/24 12:27:01;;;;;;;4.43;3.17;;;;;;;;;;4984674;28;20225;-83
2022/04/24 12:29:26;;;;;;;6.50;3.78;;;;;;;;;;4981465;28;20236;-83
2022/04/24 12:31:54;;;;;;;4.40;3.40;;;;;;;;;;4996929;28;20674;-84
2022/04/24 12:34:21;;;;;;;4.03;3.55;;;;;;;;;;4964853;28;20232;-84
2022/04/24 12:37:18;;;;;;;4.53;3.65;;;;;;;;;;4997579;28;20225;-83
2022/04/24 12:39:52;;;;;;;4.72;4.22;;;;;;;;;;4998097;28;20240;-83
2022/04/24 12:42:19;;;;;;;5.13;4.00;;;;;;;;;;4981381;28;20227;-81
2022/04/24 12:44:47;;;;;;;4.60;3.90;;;;;;;;;;4982998;28;20231;-86
2022/04/24 12:47:15;;;;;;;4.50;4.10;;;;;;;;;;4982577;28;20246;-82
2022/04/24 12:49:40;;;;;;;5.80;4.18;;;;;;;;;;4997999;28;20324;-82
2022/04/24 12:52:07;;;;;;;4.20;3.80;;;;;;;;;;4981055;28;20248;-82
2022/04/24 12:54:32;;;;;;;5.22;3.92;;;;;;;;;;4964960;28;20898;-84
2022/04/24 12:57:01;;;;;;;6.72;4.22;;;;;;;;;;5001257;28;20237;-82
2022/04/24 12:59:26;;;;;;;5.75;4.30;;;;;;;;;;4980876;28;20248;-81
2022/04/24 13:01:53;;;;;;;4.80;3.85;;;;;;;;;;5015262;28;20253;-81
2022/04/24 13:04:19;;;;;;;5.22;4.13;;;;;;;;;;4980354;28;20237;-80
2022/04/24 13:06:44;;;;;;;4.37;3.83;;;;;;;;;;4974445;28;20225;-79
2022/04/24 13:09:11;;;;;;;4.22;3.83;;;;;;;;;;4980918;28;20240;-83
2022/04/24 13:11:36;;;;;;;4.50;3.93;;;;;;;;;;4948965;28;20260;-82
2022/04/24 13:14:04;;;;;;;6.60;4.20;;;;;;;;;;4996556;28;20236;-82
2022/04/24 13:19:17;;;;;;;4.30;3.90;;;;;;;;;;4990396;28;20235;-80
2022/04/24 13:21:43;;;;;;;6.17;4.27;;;;;;;;;;4986230;28;20236;-78
2022/04/24 13:24:09;;;;;;;6.80;3.87;;;;;;;;;;4997759;28;20783;-79
2022/04/24 13:26:36;;;;;;;4.22;3.78;;;;;;;;;;4972649;28;20311;-81
2022/04/24 13:29:02;;;;;;;5.35;3.92;;;;;;;;;;4988680;28;20317;-77
2022/04/24 13:31:32;;;;;;;6.10;4.18;;;;;;;;;;4979684;28;20229;-78
2022/04/24 13:33:58;;;;;;;6.43;3.87;;;;;;;;;;4959243;28;20221;-80
2022/04/24 13:36:25;;;;;;;5.07;3.70;;;;;;;;;;4969389;28;20244;-78
2022/04/24 13:38:50;;;;;;;5.55;3.90;;;;;;;;;;4977604;28;20246;-80
2022/04/24 13:41:16;;;;;;;7.45;3.80;;;;;;;;;;4987709;28;20608;-80
2022/04/24 13:43:42;;;;;;;5.07;3.90;;;;;;;;;;5002952;28;20224;-83
2022/04/24 13:46:09;;;;;;;4.70;3.78;;;;;;;;;;5017520;28;20205;-80
2022/04/24 13:48:37;;;;;;;4.45;3.75;;;;;;;;;;4985508;28;20221;-81
2022/04/24 13:51:04;;;;;;;7.82;3.90;;;;;;;;;;4974729;28;20251;-81
2022/04/24 13:53:30;;;;;;;5.50;4.15;;;;;;;;;;4942162;28;20232;-81
2022/04/24 13:55:58;;;;;;;6.40;3.78;;;;;;;;;;4979653;28;20217;-82
2022/04/24 13:58:25;;;;;;;4.53;3.50;;;;;;;;;;4967835;28;20281;-81
2022/04/24 14:00:54;;;;;;;5.30;3.58;;;;;;;;;;4971308;28;20224;-80
2022/04/24 14:03:21;;;;;;;4.38;3.75;;;;;;;;;;4971038;28;20229;-82
2022/04/24 14:05:48;;;;;;;4.83;3.80;;;;;;;;;;4967561;28;20260;-79
2022/04/24 14:08:15;;;;;;;4.97;4.00;;;;;;;;;;4984269;28;20225;-81
2022/04/24 14:10:42;;;;;;;3.77;3.33;;;;;;;;;;5004028;28;20224;-82
2022/04/24 14:13:10;;;;;;;4.43;3.67;;;;;;;;;;4970952;28;20228;-80
2022/04/24 14:15:37;;;;;;;4.73;3.60;;;;;;;;;;4994478;28;20225;-79
2022/04/24 14:18:05;;;;;;;5.87;3.90;;;;;;;;;;4991848;28;20213;-78
2022/04/24 14:20:31;;;;;;;9.20;5.40;;;;;;;;;;4990886;28;20250;-81
2022/04/24 14:22:57;;;;;;;4.82;3.80;;;;;;;;;;5005101;28;20293;-81
2022/04/24 14:25:22;;;;;;;4.97;3.93;;;;;;;;;;5005753;28;20351;-79
2022/04/24 14:27:48;;;;;;;6.20;4.33;;;;;;;;;;4999839;28;20284;-77
2022/04/24 14:30:16;;;;;;;4.30;3.72;;;;;;;;;;4986353;28;20217;-80
2022/04/24 14:32:42;;;;;;;4.00;3.60;;;;;;;;;;5005233;28;20228;-80
2022/04/24 14:35:10;;;;;;;5.30;3.13;;;;;;;;;;4987327;28;20217;-80
2022/04/24 14:37:38;;;;;;;4.17;3.77;;;;;;;;;;4987576;28;20228;-79
2022/04/24 14:40:05;;;;;;;3.60;3.15;;;;;;;;;;4974102;28;20420;-81
2022/04/24 14:42:34;;;;;;;6.60;3.70;;;;;;;;;;4994189;28;20284;-78
2022/04/24 14:56:39;;;;;;;6.87;3.73;;;;;;;;;;4989247;28;20631;-80
2022/04/24 14:59:06;;;;;;;5.35;3.63;;;;;;;;;;4983299;28;20293;-80
2022/04/24 15:01:31;;;;;;;7.23;3.87;;;;;;;;;;4965436;28;20251;-79
2022/04/24 15:03:57;;;;;;;6.83;3.83;;;;;;;;;;4992619;28;20225;-80
2022/04/24 15:06:24;;;;;;;5.73;3.73;;;;;;;;;;4985362;28;20225;-78